sensor_id;sensor_type;location;lat;lon;timestamp;pressure;altitude;pressure_sealevel;temperature;humidity
11621;BME280;5866;49.094;11.900;2023-05-12T00:01:59;96012.34;;;11.59;100.00
11621;BME280;5866;49.094;11.900;2023-05-12T00:04:26;96011.81;;;11.71;100.00
11621;BME280;5866;49.094;11.900;2023-05-12T00:06:54;96006.91;;;12.14;100.00
11621;BME280;5866;49.094;11.900;2023-05-12T00:09:21;95999.34;;;12.25;100.00
11621;BME280;5866;49.094;11.900;2023-05-12T00:11:50;95997.53;;;12.63;100.00
11621;BME280;5866;49.094;11.900;2023-05-12T00:14:18;95987.34;;;12.29;100.00
11621;BME280;5866;49.094;11.900;2023-05-12T00:16:46;95996.47;;;12.49;100.00
11621;BME280;5866;49.094;11.900;2023-05-12T00:19:17;95989.09;;;12.74;100.00
11621;BME280;5866;49.094;11.900;2023-05-12T00:21:45;95990.38;;;12.63;100.00
11621;BME280;5866;49.094;11.900;2023-05-12T00:24:12;95988.16;;;11.84;100.00
11621;BME280;5866;49.094;11.900;2023-05-12T00:26:40;95994.38;;;12.22;100.00
11621;BME280;5866;49.094;11.900;2023-05-12T00:29:09;95992.91;;;11.66;100.00
11621;BME280;5866;49.094;11.900;2023-05-12T00:31:36;95993.06;;;11.26;100.00
11621;BME280;5866;49.094;11.900;2023-05-12T00:34:04;95995.69;;;11.34;100.00
11621;BME280;5866;49.094;11.900;2023-05-12T00:36:31;95997.78;;;11.08;100.00
11621;BME280;5866;49.094;11.900;2023-05-12T00:38:59;95999.78;;;10.98;100.00
11621;BME280;5866;49.094;11.900;2023-05-12T00:41:26;96002.16;;;10.85;100.00
11621;BME280;5866;49.094;11.900;2023-05-12T00:43:54;96012.28;;;10.73;100.00
11621;BME280;5866;49.094;11.900;2023-05-12T00:46:23;96017.56;;;10.81;100.00
11621;BME280;5866;49.094;11.900;2023-05-12T00:48:51;96017.25;;;10.84;100.00
11621;BME280;5866;49.094;11.900;2023-05-12T00:51:19;96014.03;;;11.05;100.00
11621;BME280;5866;49.094;11.900;2023-05-12T00:53:47;96007.06;;;11.04;100.00
11621;BME280;5866;49.094;11.900;2023-05-12T00:56:16;96019.66;;;11.18;100.00
11621;BME280;5866;49.094;11.900;2023-05-12T00:58:44;96007.38;;;11.09;100.00
11621;BME280;5866;49.094;11.900;2023-05-12T01:01:12;96006.88;;;11.13;100.00
11621;BME280;5866;49.094;11.900;2023-05-12T01:03:41;96014.75;;;10.91;100.00
11621;BME280;5866;49.094;11.900;2023-05-12T01:06:11;96014.41;;;10.86;100.00
11621;BME280;5866;49.094;11.900;2023-05-12T01:08:39;96014.66;;;11.15;100.00
11621;BME280;5866;49.094;11.900;2023-05-12T01:11:07;96010.72;;;11.03;100.00
11621;BME280;5866;49.094;11.900;2023-05-12T01:13:35;96013.16;;;11.20;100.00
11621;BME280;5866;49.094;11.900;2023-05-12T01:16:06;96006.63;;;11.31;100.00
11621;BME280;5866;49.094;11.900;2023-05-12T01:18:36;96010.81;;;11.72;100.00
11621;BME280;5866;49.094;11.900;2023-05-12T01:21:06;95986.09;;;11.94;100.00
11621;BME280;5866;49.094;11.900;2023-05-12T01:23:36;95992.16;;;11.80;100.00
11621;BME280;5866;49.094;11.900;2023-05-12T01:26:08;95995.31;;;12.07;100.00
11621;BME280;5866;49.094;11.900;2023-05-12T01:28:36;95992.72;;;11.98;100.00
11621;BME280;5866;49.094;11.900;2023-05-12T01:31:07;95989.13;;;11.91;100.00
11621;BME280;5866;49.094;11.900;2023-05-12T01:33:35;95990.38;;;11.65;100.00
11621;BME280;5866;49.094;11.900;2023-05-12T01:36:03;95994.13;;;11.86;100.00
11621;BME280;5866;49.094;11.900;2023-05-12T01:38:31;95984.19;;;11.80;100.00
11621;BME280;5866;49.094;11.900;2023-05-12T01:40:58;95984.78;;;11.68;100.00
11621;BME280;5866;49.094;11.900;2023-05-12T01:43:27;95982.28;;;11.66;100.00
11621;BME280;5866;49.094;11.900;2023-05-12T01:45:55;95985.44;;;11.62;100.00
11621;BME280;5866;49.094;11.900;2023-05-12T01:48:22;95991.31;;;11.49;100.00
11621;BME280;5866;49.094;11.900;2023-05-12T01:50:50;95984.84;;;11.44;100.00
11621;BME280;5866;49.094;11.900;2023-05-12T01:53:17;95998.81;;;11.38;100.00
11621;BME280;5866;49.094;11.900;2023-05-12T01:55:45;95996.31;;;11.44;100.00
11621;BME280;5866;49.094;11.900;2023-05-12T01:58:12;95997.72;;;11.24;100.00
11621;BME280;5866;49.094;11.900;2023-05-12T02:00:41;96002.72;;;11.11;100.00
11621;BME280;5866;49.094;11.900;2023-05-12T02:03:09;95999.97;;;10.96;100.00
11621;BME280;5866;49.094;11.900;2023-05-12T02:05:36;96006.72;;;11.07;100.00
11621;BME280;5866;49.094;11.900;2023-05-12T02:08:04;96012.03;;;11.07;100.00
11621;BME280;5866;49.094;11.900;2023-05-12T02:10:32;96006.41;;;11.10;100.00
11621;BME280;5866;49.094;11.900;2023-05-12T02:13:00;95999.91;;;11.12;100.00
11621;BME280;5866;49.094;11.900;2023-05-12T02:15:27;96000.09;;;11.03;100.00
11621;BME280;5866;49.094;11.900;2023-05-12T02:17:56;96007.06;;;11.12;100.00
11621;BME280;5866;49.094;11.900;2023-05-12T02:20:24;96008.03;;;11.11;100.00
11621;BME280;5866;49.094;11.900;2023-05-12T02:22:52;96002.06;;;11.09;100.00
11621;BME280;5866;49.094;11.900;2023-05-12T02:25:20;96004.91;;;11.07;100.00
11621;BME280;5866;49.094;11.900;2023-05-12T02:27:47;95996.78;;;11.09;100.00
11621;BME280;5866;49.094;11.900;2023-05-12T02:30:15;95995.63;;;11.03;100.00
11621;BME280;5866;49.094;11.900;2023-05-12T02:32:42;96000.78;;;10.97;100.00
11621;BME280;5866;49.094;11.900;2023-05-12T02:35:11;95995.63;;;11.03;100.00
11621;BME280;5866;49.094;11.900;2023-05-12T02:37:39;95995.97;;;11.00;100.00
11621;BME280;5866;49.094;11.900;2023-05-12T02:40:07;95989.84;;;10.92;100.00
11621;BME280;5866;49.094;11.900;2023-05-12T02:42:35;95991.56;;;10.69;100.00
11621;BME280;5866;49.094;11.900;2023-05-12T02:45:04;96005.78;;;10.84;100.00
11621;BME280;5866;49.094;11.900;2023-05-12T02:47:32;96001.13;;;10.86;100.00
11621;BME280;5866;49.094;11.900;2023-05-12T02:49:59;95992.81;;;11.05;100.00
11621;BME280;5866;49.094;11.900;2023-05-12T02:52:29;95992.47;;;11.08;100.00
11621;BME280;5866;49.094;11.900;2023-05-12T02:54:56;95988.88;;;10.93;100.00
11621;BME280;5866;49.094;11.900;2023-05-12T02:57:23;95991.16;;;10.96;100.00
11621;BME280;5866;49.094;11.900;2023-05-12T02:59:57;95982.75;;;10.84;100.00
11621;BME280;5866;49.094;11.900;2023-05-12T03:02:24;95989.81;;;11.00;100.00
11621;BME280;5866;49.094;11.900;2023-05-12T03:04:52;95985.03;;;11.03;100.00
11621;BME280;5866;49.094;11.900;2023-05-12T03:07:20;95992.19;;;10.87;100.00
11621;BME280;5866;49.094;11.900;2023-05-12T03:09:49;95994.50;;;10.90;100.00
11621;BME280;5866;49.094;11.900;2023-05-12T03:12:16;95987.84;;;10.94;100.00
11621;BME280;5866;49.094;11.900;2023-05-12T03:14:44;95993.50;;;10.91;100.00
11621;BME280;5866;49.094;11.900;2023-05-12T03:17:11;95996.16;;;10.91;100.00
11621;BME280;5866;49.094;11.900;2023-05-12T03:19:39;95994.81;;;10.95;100.00
11621;BME280;5866;49.094;11.900;2023-05-12T03:22:06;95991.72;;;10.75;100.00
11621;BME280;5866;49.094;11.900;2023-05-12T03:24:34;95995.50;;;10.81;100.00
11621;BME280;5866;49.094;11.900;2023-05-12T03:27:04;96002.59;;;11.04;100.00
11621;BME280;5866;49.094;11.900;2023-05-12T03:29:31;95995.13;;;11.00;100.00
11621;BME280;5866;49.094;11.900;2023-05-12T03:31:59;95992.50;;;10.92;100.00
11621;BME280;5866;49.094;11.900;2023-05-12T03:34:26;96000.13;;;10.95;100.00
11621;BME280;5866;49.094;11.900;2023-05-12T03:36:54;96003.78;;;10.86;100.00
11621;BME280;5866;49.094;11.900;2023-05-12T03:39:21;95996.66;;;10.86;100.00
11621;BME280;5866;49.094;11.900;2023-05-12T03:41:50;95994.84;;;10.87;100.00
11621;BME280;5866;49.094;11.900;2023-05-12T03:44:19;95995.47;;;10.97;100.00
11621;BME280;5866;49.094;11.900;2023-05-12T03:46:46;95988.50;;;10.96;100.00
11621;BME280;5866;49.094;11.900;2023-05-12T03:49:14;95988.50;;;10.96;100.00
11621;BME280;5866;49.094;11.900;2023-05-12T03:51:41;95982.56;;;10.86;100.00
11621;BME280;5866;49.094;11.900;2023-05-12T03:54:09;95982.84;;;11.07;100.00
11621;BME280;5866;49.094;11.900;2023-05-12T03:56:36;95985.88;;;10.88;100.00
11621;BME280;5866;49.094;11.900;2023-05-12T03:59:04;95991.34;;;10.94;100.00
11621;BME280;5866;49.094;11.900;2023-05-12T04:01:33;95985.81;;;11.12;100.00
11621;BME280;5866;49.094;11.900;2023-05-12T04:04:01;95985.38;;;11.39;100.00
11621;BME280;5866;49.094;11.900;2023-05-12T04:06:28;95979.78;;;11.26;100.00
11621;BME280;5866;49.094;11.900;2023-05-12T04:08:57;95976.25;;;11.34;100.00
11621;BME280;5866;49.094;11.900;2023-05-12T04:11:25;95972.34;;;11.60;100.00
11621;BME280;5866;49.094;11.900;2023-05-12T04:13:52;95976.69;;;11.53;100.00
11621;BME280;5866;49.094;11.900;2023-05-12T04:16:20;95969.22;;;11.49;100.00
11621;BME280;5866;49.094;11.900;2023-05-12T04:18:49;95968.16;;;11.35;100.00
11621;BME280;5866;49.094;11.900;2023-05-12T04:21:17;95968.19;;;11.58;100.00
11621;BME280;5866;49.094;11.900;2023-05-12T04:23:44;95977.00;;;11.50;100.00
11621;BME280;5866;49.094;11.900;2023-05-12T04:26:12;95983.53;;;11.48;100.00
11621;BME280;5866;49.094;11.900;2023-05-12T04:28:39;95984.50;;;11.47;100.00
11621;BME280;5866;49.094;11.900;2023-05-12T04:31:07;95985.84;;;11.43;100.00
11621;BME280;5866;49.094;11.900;2023-05-12T04:33:34;95994.72;;;11.27;100.00
11621;BME280;5866;49.094;11.900;2023-05-12T04:36:03;95990.69;;;11.39;100.00
11621;BME280;5866;49.094;11.900;2023-05-12T04:38:31;95992.47;;;11.08;100.00
11621;BME280;5866;49.094;11.900;2023-05-12T04:40:58;95995.41;;;11.21;100.00
11621;BME280;5866;49.094;11.900;2023-05-12T04:43:26;96001.03;;;11.26;100.00
11621;BME280;5866;49.094;11.900;2023-05-12T04:45:56;95999.50;;;11.32;100.00
11621;BME280;5866;49.094;11.900;2023-05-12T04:48:25;96004.88;;;11.15;100.00
11621;BME280;5866;49.094;11.900;2023-05-12T04:50:53;96011.72;;;11.10;100.00
11621;BME280;5866;49.094;11.900;2023-05-12T04:53:22;96011.34;;;11.13;100.00
11621;BME280;5866;49.094;11.900;2023-05-12T04:55:49;96007.69;;;11.22;100.00
11621;BME280;5866;49.094;11.900;2023-05-12T04:58:17;96008.97;;;11.34;100.00
11621;BME280;5866;49.094;11.900;2023-05-12T05:00:45;96012.66;;;11.17;100.00
11621;BME280;5866;49.094;11.900;2023-05-12T05:03:13;96005.34;;;11.19;100.00
11621;BME280;5866;49.094;11.900;2023-05-12T05:05:40;96012.19;;;11.13;100.00
11621;BME280;5866;49.094;11.900;2023-05-12T05:08:08;96016.34;;;11.00;100.00
11621;BME280;5866;49.094;11.900;2023-05-12T05:10:37;96016.66;;;11.13;100.00
11621;BME280;5866;49.094;11.900;2023-05-12T05:13:04;96019.03;;;11.08;100.00
11621;BME280;5866;49.094;11.900;2023-05-12T05:15:31;96023.19;;;10.94;100.00
11621;BME280;5866;49.094;11.900;2023-05-12T05:17:59;96022.03;;;10.81;100.00
11621;BME280;5866;49.094;11.900;2023-05-12T05:20:27;96031.69;;;10.74;100.00
11621;BME280;5866;49.094;11.900;2023-05-12T05:22:55;96037.47;;;10.69;100.00
11621;BME280;5866;49.094;11.900;2023-05-12T05:25:22;96039.28;;;10.69;100.00
11621;BME280;5866;49.094;11.900;2023-05-12T05:27:53;96041.94;;;10.69;100.00
11621;BME280;5866;49.094;11.900;2023-05-12T05:30:21;96044.94;;;10.66;100.00
11621;BME280;5866;49.094;11.900;2023-05-12T05:32:48;96050.94;;;10.60;100.00
11621;BME280;5866;49.094;11.900;2023-05-12T05:35:16;96048.91;;;10.54;100.00
11621;BME280;5866;49.094;11.900;2023-05-12T05:37:44;96049.59;;;10.39;100.00
11621;BME280;5866;49.094;11.900;2023-05-12T05:40:11;96057.88;;;10.61;100.00
11621;BME280;5866;49.094;11.900;2023-05-12T05:42:39;96052.91;;;10.74;100.00
11621;BME280;5866;49.094;11.900;2023-05-12T05:45:09;96059.84;;;10.91;100.00
11621;BME280;5866;49.094;11.900;2023-05-12T05:47:36;96054.56;;;10.83;100.00
11621;BME280;5866;49.094;11.900;2023-05-12T05:50:05;96057.34;;;10.81;100.00
11621;BME280;5866;49.094;11.900;2023-05-12T05:52:33;96047.19;;;11.09;100.00
11621;BME280;5866;49.094;11.900;2023-05-12T05:55:00;96051.16;;;11.13;100.00
11621;BME280;5866;49.094;11.900;2023-05-12T05:57:28;96054.50;;;11.07;100.00
11621;BME280;5866;49.094;11.900;2023-05-12T05:59:55;96054.81;;;11.20;100.00
11621;BME280;5866;49.094;11.900;2023-05-12T06:02:24;96055.09;;;11.33;100.00
11621;BME280;5866;49.094;11.900;2023-05-12T06:04:52;96054.44;;;11.39;100.00
11621;BME280;5866;49.094;11.900;2023-05-12T06:07:19;96045.09;;;11.51;100.00
11621;BME280;5866;49.094;11.900;2023-05-12T06:09:47;96050.69;;;11.56;100.00
11621;BME280;5866;49.094;11.900;2023-05-12T06:12:15;96056.72;;;11.42;100.00
11621;BME280;5866;49.094;11.900;2023-05-12T06:14:42;96057.34;;;11.60;100.00
11621;BME280;5866;49.094;11.900;2023-05-12T06:17:10;96058.66;;;11.64;100.00
11621;BME280;5866;49.094;11.900;2023-05-12T06:19:38;96052.22;;;11.98;100.00
11621;BME280;5866;49.094;11.900;2023-05-12T06:22:06;96056.97;;;11.63;100.00
11621;BME280;5866;49.094;11.900;2023-05-12T06:24:33;96055.63;;;11.75;100.00
11621;BME280;5866;49.094;11.900;2023-05-12T06:27:01;96062.88;;;11.89;100.00
11621;BME280;5866;49.094;11.900;2023-05-12T06:29:28;96055.28;;;11.78;100.00
11621;BME280;5866;49.094;11.900;2023-05-12T06:31:56;96057.34;;;11.52;100.00
11621;BME280;5866;49.094;11.900;2023-05-12T06:34:23;96061.63;;;11.69;100.00
11621;BME280;5866;49.094;11.900;2023-05-12T06:36:52;96070.38;;;12.17;100.00
11621;BME280;5866;49.094;11.900;2023-05-12T06:39:20;96062.31;;;12.02;100.00
11621;BME280;5866;49.094;11.900;2023-05-12T06:41:48;96071.31;;;12.46;100.00
11621;BME280;5866;49.094;11.900;2023-05-12T06:44:15;96060.16;;;12.28;100.00
11621;BME280;5866;49.094;11.900;2023-05-12T06:46:42;96067.53;;;12.63;100.00
11621;BME280;5866;49.094;11.900;2023-05-12T06:49:10;96063.53;;;12.45;100.00
11621;BME280;5866;49.094;11.900;2023-05-12T06:51:38;96065.88;;;12.17;100.00
11621;BME280;5866;49.094;11.900;2023-05-12T06:54:07;96070.81;;;11.98;100.00
11621;BME280;5866;49.094;11.900;2023-05-12T06:56:34;96076.03;;;12.14;100.00
11621;BME280;5866;49.094;11.900;2023-05-12T06:59:01;96068.03;;;12.67;100.00
11621;BME280;5866;49.094;11.900;2023-05-12T07:01:30;96066.34;;;11.98;100.00
11621;BME280;5866;49.094;11.900;2023-05-12T07:03:58;96072.91;;;11.63;100.00
11621;BME280;5866;49.094;11.900;2023-05-12T07:06:26;96077.03;;;11.82;100.00
11621;BME280;5866;49.094;11.900;2023-05-12T07:08:54;96078.69;;;11.83;100.00
11621;BME280;5866;49.094;11.900;2023-05-12T07:11:23;96078.13;;;11.95;100.00
11621;BME280;5866;49.094;11.900;2023-05-12T07:13:50;96085.19;;;12.11;100.00
11621;BME280;5866;49.094;11.900;2023-05-12T07:16:18;96075.38;;;11.81;100.00
11621;BME280;5866;49.094;11.900;2023-05-12T07:18:46;96076.19;;;11.81;100.00
11621;BME280;5866;49.094;11.900;2023-05-12T07:21:14;96069.28;;;11.72;100.00
11621;BME280;5866;49.094;11.900;2023-05-12T07:23:41;96081.16;;;11.84;100.00
11621;BME280;5866;49.094;11.900;2023-05-12T07:26:09;96086.16;;;11.79;100.00
11621;BME280;5866;49.094;11.900;2023-05-12T07:28:37;96088.91;;;12.02;100.00
11621;BME280;5866;49.094;11.900;2023-05-12T07:31:06;96087.03;;;12.03;100.00
11621;BME280;5866;49.094;11.900;2023-05-12T07:33:35;96084.06;;;12.06;100.00
11621;BME280;5866;49.094;11.900;2023-05-12T07:36:03;96082.31;;;12.66;100.00
11621;BME280;5866;49.094;11.900;2023-05-12T07:38:30;96076.25;;;12.95;100.00
11621;BME280;5866;49.094;11.900;2023-05-12T07:40:58;96079.47;;;13.13;100.00
11621;BME280;5866;49.094;11.900;2023-05-12T07:43:26;96075.16;;;13.26;100.00
11621;BME280;5866;49.094;11.900;2023-05-12T07:45:55;96066.69;;;13.08;100.00
11621;BME280;5866;49.094;11.900;2023-05-12T07:48:24;96073.44;;;13.48;100.00
11621;BME280;5866;49.094;11.900;2023-05-12T07:50:52;96080.88;;;12.78;100.00
11621;BME280;5866;49.094;11.900;2023-05-12T07:53:19;96082.47;;;12.87;100.00
11621;BME280;5866;49.094;11.900;2023-05-12T07:55:47;96080.78;;;12.94;100.00
11621;BME280;5866;49.094;11.900;2023-05-12T07:58:14;96077.84;;;12.66;100.00
11621;BME280;5866;49.094;11.900;2023-05-12T08:00:42;96082.09;;;12.53;100.00
11621;BME280;5866;49.094;11.900;2023-05-12T08:03:11;96091.31;;;12.65;100.00
11621;BME280;5866;49.094;11.900;2023-05-12T08:05:39;96084.63;;;12.46;100.00
11621;BME280;5866;49.094;11.900;2023-05-12T08:08:06;96087.66;;;12.66;100.00
11621;BME280;5866;49.094;11.900;2023-05-12T08:10:37;96091.19;;;12.81;100.00
11621;BME280;5866;49.094;11.900;2023-05-12T08:13:04;96086.38;;;12.99;100.00
11621;BME280;5866;49.094;11.900;2023-05-12T08:15:32;96082.66;;;13.08;100.00
11621;BME280;5866;49.094;11.900;2023-05-12T08:17:59;96091.50;;;13.23;100.00
11621;BME280;5866;49.094;11.900;2023-05-12T08:20:28;96085.31;;;13.08;100.00
11621;BME280;5866;49.094;11.900;2023-05-12T08:22:56;96085.91;;;13.33;100.00
11621;BME280;5866;49.094;11.900;2023-05-12T08:25:24;96079.28;;;13.87;100.00
11621;BME280;5866;49.094;11.900;2023-05-12T08:27:53;96073.81;;;14.10;100.00
11621;BME280;5866;49.094;11.900;2023-05-12T08:30:21;96076.91;;;14.28;100.00
11621;BME280;5866;49.094;11.900;2023-05-12T08:32:48;96077.97;;;13.98;100.00
11621;BME280;5866;49.094;11.900;2023-05-12T08:35:16;96084.00;;;14.21;100.00
11621;BME280;5866;49.094;11.900;2023-05-12T08:37:46;96074.16;;;14.36;100.00
11621;BME280;5866;49.094;11.900;2023-05-12T08:40:19;96094.38;;;14.45;100.00
11621;BME280;5866;49.094;11.900;2023-05-12T08:42:50;96085.75;;;14.43;100.00
11621;BME280;5866;49.094;11.900;2023-05-12T08:45:21;96075.84;;;14.08;100.00
11621;BME280;5866;49.094;11.900;2023-05-12T08:47:49;96079.50;;;13.71;100.00
11621;BME280;5866;49.094;11.900;2023-05-12T08:50:21;96096.66;;;13.69;100.00
11621;BME280;5866;49.094;11.900;2023-05-12T08:52:50;96085.56;;;13.80;100.00
11621;BME280;5866;49.094;11.900;2023-05-12T08:55:19;96088.44;;;13.99;100.00
11621;BME280;5866;49.094;11.900;2023-05-12T08:57:49;96087.66;;;13.99;100.00
11621;BME280;5866;49.094;11.900;2023-05-12T09:00:18;96088.63;;;14.12;100.00
11621;BME280;5866;49.094;11.900;2023-05-12T09:02:47;96092.97;;;14.13;100.00
11621;BME280;5866;49.094;11.900;2023-05-12T09:05:20;96089.09;;;14.01;100.00
11621;BME280;5866;49.094;11.900;2023-05-12T09:07:50;96094.66;;;13.71;100.00
11621;BME280;5866;49.094;11.900;2023-05-12T09:10:21;96090.97;;;14.01;100.00
11621;BME280;5866;49.094;11.900;2023-05-12T09:13:02;96090.84;;;14.09;100.00
11621;BME280;5866;49.094;11.900;2023-05-12T09:15:34;96090.53;;;14.33;100.00
11621;BME280;5866;49.094;11.900;2023-05-12T09:18:04;96089.88;;;14.67;100.00
11621;BME280;5866;49.094;11.900;2023-05-12T09:20:32;96086.75;;;14.63;100.00
11621;BME280;5866;49.094;11.900;2023-05-12T09:23:14;96090.50;;;14.69;100.00
11621;BME280;5866;49.094;11.900;2023-05-12T09:25:42;96095.88;;;14.33;100.00
11621;BME280;5866;49.094;11.900;2023-05-12T09:28:10;96092.78;;;14.51;100.00
11621;BME280;5866;49.094;11.900;2023-05-12T09:30:37;96091.06;;;14.64;100.00
11621;BME280;5866;49.094;11.900;2023-05-12T09:33:09;96092.59;;;14.73;100.00
11621;BME280;5866;49.094;11.900;2023-05-12T09:35:38;96101.47;;;14.38;100.00
11621;BME280;5866;49.094;11.900;2023-05-12T09:38:08;96096.97;;;14.81;100.00
11621;BME280;5866;49.094;11.900;2023-05-12T09:40:37;96098.50;;;14.90;100.00
11621;BME280;5866;49.094;11.900;2023-05-12T09:43:05;96093.00;;;15.19;100.00
11621;BME280;5866;49.094;11.900;2023-05-12T09:45:33;96090.59;;;15.24;100.00
11621;BME280;5866;49.094;11.900;2023-05-12T09:48:07;96097.38;;;14.78;100.00
11621;BME280;5866;49.094;11.900;2023-05-12T09:50:42;96087.94;;;15.03;100.00
11621;BME280;5866;49.094;11.900;2023-05-12T09:53:13;96093.59;;;15.42;100.00
11621;BME280;5866;49.094;11.900;2023-05-12T09:55:44;96094.94;;;15.87;100.00
11621;BME280;5866;49.094;11.900;2023-05-12T09:58:14;96096.16;;;15.50;100.00
11621;BME280;5866;49.094;11.900;2023-05-12T10:00:42;96091.50;;;15.38;100.00
11621;BME280;5866;49.094;11.900;2023-05-12T10:03:32;96094.78;;;15.61;100.00
11621;BME280;5866;49.094;11.900;2023-05-12T10:06:02;96094.31;;;15.85;100.00
11621;BME280;5866;49.094;11.900;2023-05-12T10:08:36;96087.63;;;16.02;100.00
11621;BME280;5866;49.094;11.900;2023-05-12T10:11:05;96085.88;;;15.88;100.00
11621;BME280;5866;49.094;11.900;2023-05-12T10:13:33;96082.91;;;15.42;100.00
11621;BME280;5866;49.094;11.900;2023-05-12T10:16:01;96091.31;;;15.11;100.00
11621;BME280;5866;49.094;11.900;2023-05-12T10:18:30;96101.16;;;15.11;100.00
11621;BME280;5866;49.094;11.900;2023-05-12T10:20:58;96099.66;;;14.60;100.00
11621;BME280;5866;49.094;11.900;2023-05-12T10:23:27;96098.72;;;14.67;100.00
11621;BME280;5866;49.094;11.900;2023-05-12T10:25:55;96109.09;;;14.41;100.00
11621;BME280;5866;49.094;11.900;2023-05-12T10:28:28;96100.34;;;14.47;100.00
11621;BME280;5866;49.094;11.900;2023-05-12T10:30:56;96104.34;;;14.22;100.00
11621;BME280;5866;49.094;11.900;2023-05-12T10:33:25;96111.47;;;13.42;100.00
11621;BME280;5866;49.094;11.900;2023-05-12T10:35:52;96117.28;;;13.08;100.00
11621;BME280;5866;49.094;11.900;2023-05-12T10:38:20;96116.31;;;13.38;100.00
11621;BME280;5866;49.094;11.900;2023-05-12T10:40:52;96124.59;;;13.58;100.00
11621;BME280;5866;49.094;11.900;2023-05-12T10:43:21;96132.16;;;13.54;100.00
11621;BME280;5866;49.094;11.900;2023-05-12T10:46:14;96125.44;;;13.59;100.00
11621;BME280;5866;49.094;11.900;2023-05-12T10:48:51;96128.75;;;13.46;100.00
11621;BME280;5866;49.094;11.900;2023-05-12T10:51:19;96131.66;;;13.51;100.00
11621;BME280;5866;49.094;11.900;2023-05-12T10:53:50;96127.00;;;13.68;100.00
11621;BME280;5866;49.094;11.900;2023-05-12T10:56:21;96126.72;;;13.48;100.00
11621;BME280;5866;49.094;11.900;2023-05-12T10:59:06;96131.75;;;13.57;100.00
11621;BME280;5866;49.094;11.900;2023-05-12T11:01:36;96128.00;;;13.67;100.00
11621;BME280;5866;49.094;11.900;2023-05-12T11:04:15;96130.69;;;13.67;100.00
11621;BME280;5866;49.094;11.900;2023-05-12T11:06:56;96126.50;;;14.08;100.00
11621;BME280;5866;49.094;11.900;2023-05-12T11:09:25;96126.09;;;13.90;100.00
11621;BME280;5866;49.094;11.900;2023-05-12T11:11:52;96129.38;;;13.92;100.00
11621;BME280;5866;49.094;11.900;2023-05-12T11:14:21;96127.28;;;13.87;100.00
11621;BME280;5866;49.094;11.900;2023-05-12T11:16:51;96120.81;;;14.25;100.00
11621;BME280;5866;49.094;11.900;2023-05-12T11:19:19;96130.44;;;14.41;100.00
11621;BME280;5866;49.094;11.900;2023-05-12T11:21:46;96125.63;;;14.01;100.00
11621;BME280;5866;49.094;11.900;2023-05-12T11:24:14;96138.97;;;13.72;100.00
11621;BME280;5866;49.094;11.900;2023-05-12T11:26:42;96134.78;;;13.40;100.00
11621;BME280;5866;49.094;11.900;2023-05-12T11:29:09;96135.75;;;13.24;100.00
11621;BME280;5866;49.094;11.900;2023-05-12T11:31:37;96146.06;;;12.82;100.00
11621;BME280;5866;49.094;11.900;2023-05-12T11:34:07;96149.03;;;12.64;100.00
11621;BME280;5866;49.094;11.900;2023-05-12T11:36:41;96144.06;;;12.61;100.00
11621;BME280;5866;49.094;11.900;2023-05-12T11:39:12;96154.66;;;12.39;100.00
11621;BME280;5866;49.094;11.900;2023-05-12T11:41:41;96164.69;;;12.29;100.00
11621;BME280;5866;49.094;11.900;2023-05-12T11:44:16;96164.47;;;12.38;100.00
11621;BME280;5866;49.094;11.900;2023-05-12T11:46:54;96171.75;;;12.14;100.00
11621;BME280;5866;49.094;11.900;2023-05-12T11:49:23;96171.41;;;12.17;100.00
11621;BME280;5866;49.094;11.900;2023-05-12T11:51:52;96168.66;;;12.33;100.00
11621;BME280;5866;49.094;11.900;2023-05-12T11:54:20;96170.53;;;12.55;100.00
11621;BME280;5866;49.094;11.900;2023-05-12T11:56:48;96168.81;;;12.39;100.00
11621;BME280;5866;49.094;11.900;2023-05-12T11:59:26;96172.97;;;12.34;100.00
11621;BME280;5866;49.094;11.900;2023-05-12T12:01:55;96177.06;;;12.52;100.00
11621;BME280;5866;49.094;11.900;2023-05-12T12:04:36;96173.88;;;12.80;100.00
11621;BME280;5866;49.094;11.900;2023-05-12T12:07:05;96178.75;;;13.21;100.00
11621;BME280;5866;49.094;11.900;2023-05-12T12:09:36;96173.78;;;13.18;100.00
11621;BME280;5866;49.094;11.900;2023-05-12T12:12:04;96172.53;;;13.29;100.00
11621;BME280;5866;49.094;11.900;2023-05-12T12:14:35;96175.41;;;13.42;100.00
11621;BME280;5866;49.094;11.900;2023-05-12T12:17:03;96179.91;;;13.41;100.00
11621;BME280;5866;49.094;11.900;2023-05-12T12:19:31;96176.94;;;13.36;100.00
11621;BME280;5866;49.094;11.900;2023-05-12T12:22:00;96175.00;;;13.30;100.00
11621;BME280;5866;49.094;11.900;2023-05-12T12:24:27;96178.31;;;13.32;100.00
11621;BME280;5866;49.094;11.900;2023-05-12T12:26:55;96181.69;;;13.26;100.00
11621;BME280;5866;49.094;11.900;2023-05-12T12:29:22;96181.34;;;13.29;100.00
11621;BME280;5866;49.094;11.900;2023-05-12T12:31:51;96180.06;;;13.25;100.00
11621;BME280;5866;49.094;11.900;2023-05-12T12:34:18;96183.63;;;12.87;100.00
11621;BME280;5866;49.094;11.900;2023-05-12T12:36:46;96179.53;;;12.99;100.00
11621;BME280;5866;49.094;11.900;2023-05-12T12:39:15;96183.56;;;12.95;100.00
11621;BME280;5866;49.094;11.900;2023-05-12T12:41:45;96183.09;;;12.69;100.00
11621;BME280;5866;49.094;11.900;2023-05-12T12:44:13;96191.69;;;12.79;100.00
11621;BME280;5866;49.094;11.900;2023-05-12T12:46:41;96196.44;;;13.14;100.00
11621;BME280;5866;49.094;11.900;2023-05-12T12:49:09;96190.91;;;12.93;100.00
11621;BME280;5866;49.094;11.900;2023-05-12T12:51:36;96194.34;;;12.79;100.00
11621;BME280;5866;49.094;11.900;2023-05-12T12:54:12;96203.81;;;12.82;100.00
11621;BME280;5866;49.094;11.900;2023-05-12T12:56:41;96200.16;;;13.05;100.00
11621;BME280;5866;49.094;11.900;2023-05-12T12:59:09;96203.06;;;13.18;100.00